This is the latest recevied weather packets stored in our database for station/object W4KAB. If no packets are shown the sender has not sent any weather packets the latest 10 day(s).
| Time | Temp. | Humidity | Pressure | Rain* | Wind** | Luminosity | Snow |
|---|---|---|---|---|---|---|---|
| 1777310584 | 19.44° C | 61% | 1024.6 hPa | 0 mm | - | 659 W/m² | - |
| 1777310282 | 18.33° C | 59% | 1024.5 hPa | 0 mm | - | 650 W/m² | - |
| 1777309979 | 18.33° C | 59% | 1024.7 hPa | 0 mm | - | 625 W/m² | - |
| 1777309676 | 18.33° C | 60% | 1024.6 hPa | 0 mm | - | 718 W/m² | - |
| 1777309374 | 17.78° C | 63% | 1025.1 hPa | 0 mm | - | 524 W/m² | - |
| 1777309072 | 18.33° C | 60% | 1024.8 hPa | 0 mm | - | 346 W/m² | - |
| 1777308769 | 17.78° C | 60% | 1024.8 hPa | 0 mm | - | 590 W/m² | - |
| 1777308464 | 17.22° C | 61% | 1025.2 hPa | 0 mm | - | 632 W/m² | - |
| 1777308160 | 16.11° C | 65% | 1025.2 hPa | 0 mm | - | 705 W/m² | - |
| 1777307856 | 17.22° C | 62% | 1025.3 hPa | 0 mm | - | 728 W/m² | - |
| 1777307554 | 17.22° C | 61% | 1025.3 hPa | 0 mm | - | 724 W/m² | - |
| 1777307251 | 17.22° C | 64% | 1025.5 hPa | 0 mm | - | 731 W/m² | - |
| 1777306948 | 17.22° C | 62% | 1025.2 hPa | 0 mm | - | 709 W/m² | - |
| 1777306645 | 16.67° C | 64% | 1025.4 hPa | 0 mm | - | 711 W/m² | - |
| 1777306341 | 16.67° C | 64% | 1025.3 hPa | 0 mm | - | 704 W/m² | - |
| 1777306035 | 16.67° C | 65% | 1025.4 hPa | 0 mm | - | 685 W/m² | - |
| 1777305733 | 16.11° C | 65% | 1025.3 hPa | 0 mm | - | 681 W/m² | - |
| 1777305429 | 15.56° C | 66% | 1025.3 hPa | 0 mm | - | 629 W/m² | - |
| 1777305123 | 15.56° C | 67% | 1025.4 hPa | 0 mm | - | 425 W/m² | - |
| 1777304818 | 15.56° C | 68% | 1025.5 hPa | 0 mm | - | 756 W/m² | - |
| 1777304515 | 14.44° C | 69% | 1025.4 hPa | 0 mm | - | 467 W/m² | - |
| 1777304213 | 15° C | 70% | 1025.5 hPa | 0 mm | - | 228 W/m² | - |
| 1777303910 | 13.89° C | 70% | 1025.4 hPa | 0 mm | - | 766 W/m² | - |
| 1777303607 | 13.89° C | 69% | 1025.5 hPa | 0 mm | - | 163 W/m² | - |
| 1777303305 | 13.89° C | 71% | 1025.4 hPa | 0 mm | - | 859 W/m² | - |
* Rain latest hour (hover to see other rain measurements)
** Current wind speed in m/s (hover to see current wind gust speed)